sensor_id;sensor_type;location;lat;lon;timestamp;temperature;humidity
15217;DHT22;7711;46.634;14.318;2022-08-23T00:02:01;17.00;99.90
15217;DHT22;7711;46.634;14.318;2022-08-23T00:04:31;17.00;99.90
15217;DHT22;7711;46.634;14.318;2022-08-23T00:07:04;17.00;99.90
15217;DHT22;7711;46.634;14.318;2022-08-23T00:09:37;16.90;99.90
15217;DHT22;7711;46.634;14.318;2022-08-23T00:12:11;16.90;99.90
15217;DHT22;7711;46.634;14.318;2022-08-23T00:14:41;16.90;99.90
15217;DHT22;7711;46.634;14.318;2022-08-23T00:17:10;16.90;99.90
15217;DHT22;7711;46.634;14.318;2022-08-23T00:19:38;16.90;99.90
15217;DHT22;7711;46.634;14.318;2022-08-23T00:22:08;16.90;99.90
15217;DHT22;7711;46.634;14.318;2022-08-23T00:24:38;16.90;99.90
15217;DHT22;7711;46.634;14.318;2022-08-23T00:27:09;16.90;99.90
15217;DHT22;7711;46.634;14.318;2022-08-23T00:29:38;16.90;99.90
15217;DHT22;7711;46.634;14.318;2022-08-23T00:32:08;16.80;99.90
15217;DHT22;7711;46.634;14.318;2022-08-23T00:34:36;16.80;99.90
15217;DHT22;7711;46.634;14.318;2022-08-23T00:37:05;16.80;99.90
15217;DHT22;7711;46.634;14.318;2022-08-23T00:39:34;16.80;99.90
15217;DHT22;7711;46.634;14.318;2022-08-23T00:42:06;16.90;99.90
15217;DHT22;7711;46.634;14.318;2022-08-23T00:44:56;16.90;99.90
15217;DHT22;7711;46.634;14.318;2022-08-23T00:47:43;16.80;99.90
15217;DHT22;7711;46.634;14.318;2022-08-23T00:50:17;16.80;99.90
15217;DHT22;7711;46.634;14.318;2022-08-23T00:52:55;16.80;99.90
15217;DHT22;7711;46.634;14.318;2022-08-23T00:55:25;16.80;99.90
15217;DHT22;7711;46.634;14.318;2022-08-23T00:57:53;16.70;99.90
15217;DHT22;7711;46.634;14.318;2022-08-23T01:00:22;16.70;99.90
15217;DHT22;7711;46.634;14.318;2022-08-23T01:02:50;16.70;99.90
15217;DHT22;7711;46.634;14.318;2022-08-23T01:07:49;16.70;99.90
15217;DHT22;7711;46.634;14.318;2022-08-23T01:10:24;16.70;99.90
15217;DHT22;7711;46.634;14.318;2022-08-23T01:12:57;16.60;99.90
15217;DHT22;7711;46.634;14.318;2022-08-23T01:15:31;16.60;99.90
15217;DHT22;7711;46.634;14.318;2022-08-23T01:18:02;16.60;99.90
15217;DHT22;7711;46.634;14.318;2022-08-23T01:20:34;16.60;99.90
15217;DHT22;7711;46.634;14.318;2022-08-23T01:23:20;16.60;99.90
15217;DHT22;7711;46.634;14.318;2022-08-23T01:25:48;16.70;99.90
15217;DHT22;7711;46.634;14.318;2022-08-23T01:28:16;16.70;99.90
15217;DHT22;7711;46.634;14.318;2022-08-23T01:30:50;16.70;99.90
15217;DHT22;7711;46.634;14.318;2022-08-23T01:33:17;16.60;99.90
15217;DHT22;7711;46.634;14.318;2022-08-23T01:35:51;16.60;99.90
15217;DHT22;7711;46.634;14.318;2022-08-23T01:38:21;16.60;99.90
15217;DHT22;7711;46.634;14.318;2022-08-23T01:40:51;16.50;99.90
15217;DHT22;7711;46.634;14.318;2022-08-23T01:43:19;16.60;99.90
15217;DHT22;7711;46.634;14.318;2022-08-23T01:45:47;16.60;99.90
15217;DHT22;7711;46.634;14.318;2022-08-23T01:48:15;16.70;99.90
15217;DHT22;7711;46.634;14.318;2022-08-23T01:50:46;16.70;99.90
15217;DHT22;7711;46.634;14.318;2022-08-23T01:53:13;16.70;99.90
15217;DHT22;7711;46.634;14.318;2022-08-23T01:55:42;16.60;99.90
15217;DHT22;7711;46.634;14.318;2022-08-23T01:58:10;16.60;99.90
15217;DHT22;7711;46.634;14.318;2022-08-23T02:00:42;16.50;99.90
15217;DHT22;7711;46.634;14.318;2022-08-23T02:03:11;16.50;99.90
15217;DHT22;7711;46.634;14.318;2022-08-23T02:05:39;16.50;99.90
15217;DHT22;7711;46.634;14.318;2022-08-23T02:08:08;16.50;99.90
15217;DHT22;7711;46.634;14.318;2022-08-23T02:10:50;16.50;99.90
15217;DHT22;7711;46.634;14.318;2022-08-23T02:13:19;16.50;99.90
15217;DHT22;7711;46.634;14.318;2022-08-23T02:15:49;16.40;99.90
15217;DHT22;7711;46.634;14.318;2022-08-23T02:18:18;16.40;99.90
15217;DHT22;7711;46.634;14.318;2022-08-23T02:20:46;16.40;99.90
15217;DHT22;7711;46.634;14.318;2022-08-23T02:23:17;16.40;99.90
15217;DHT22;7711;46.634;14.318;2022-08-23T02:25:44;16.30;99.90
15217;DHT22;7711;46.634;14.318;2022-08-23T02:28:13;16.20;99.90
15217;DHT22;7711;46.634;14.318;2022-08-23T02:30:43;16.20;99.90
15217;DHT22;7711;46.634;14.318;2022-08-23T02:33:11;16.20;99.90
15217;DHT22;7711;46.634;14.318;2022-08-23T02:35:39;16.30;99.90
15217;DHT22;7711;46.634;14.318;2022-08-23T02:38:10;16.40;99.90
15217;DHT22;7711;46.634;14.318;2022-08-23T02:40:38;16.30;99.90
15217;DHT22;7711;46.634;14.318;2022-08-23T02:43:09;16.30;99.90
15217;DHT22;7711;46.634;14.318;2022-08-23T02:45:38;16.40;99.90
15217;DHT22;7711;46.634;14.318;2022-08-23T02:48:08;16.40;99.90
15217;DHT22;7711;46.634;14.318;2022-08-23T02:50:35;16.30;99.90
15217;DHT22;7711;46.634;14.318;2022-08-23T02:53:03;16.30;99.90
15217;DHT22;7711;46.634;14.318;2022-08-23T02:55:30;16.40;99.90
15217;DHT22;7711;46.634;14.318;2022-08-23T02:57:57;16.40;99.90
15217;DHT22;7711;46.634;14.318;2022-08-23T03:00:25;16.40;99.90
15217;DHT22;7711;46.634;14.318;2022-08-23T03:02:54;16.40;99.90
15217;DHT22;7711;46.634;14.318;2022-08-23T03:05:23;16.40;99.90
15217;DHT22;7711;46.634;14.318;2022-08-23T03:07:51;16.40;99.90
15217;DHT22;7711;46.634;14.318;2022-08-23T03:10:19;16.40;99.90
15217;DHT22;7711;46.634;14.318;2022-08-23T03:12:46;16.40;99.90
15217;DHT22;7711;46.634;14.318;2022-08-23T03:15:13;16.40;99.90
15217;DHT22;7711;46.634;14.318;2022-08-23T03:17:42;16.40;99.90
15217;DHT22;7711;46.634;14.318;2022-08-23T03:20:14;16.40;99.90
15217;DHT22;7711;46.634;14.318;2022-08-23T03:22:41;16.30;99.90
15217;DHT22;7711;46.634;14.318;2022-08-23T03:25:09;16.30;99.90
15217;DHT22;7711;46.634;14.318;2022-08-23T03:27:37;16.30;99.90
15217;DHT22;7711;46.634;14.318;2022-08-23T03:30:06;16.30;99.90
15217;DHT22;7711;46.634;14.318;2022-08-23T03:32:34;16.30;99.90
15217;DHT22;7711;46.634;14.318;2022-08-23T03:35:01;16.20;99.90
15217;DHT22;7711;46.634;14.318;2022-08-23T03:37:31;16.20;99.90
15217;DHT22;7711;46.634;14.318;2022-08-23T03:39:58;16.20;99.90
15217;DHT22;7711;46.634;14.318;2022-08-23T03:42:25;16.20;99.90
15217;DHT22;7711;46.634;14.318;2022-08-23T03:44:57;16.20;99.90
15217;DHT22;7711;46.634;14.318;2022-08-23T03:47:24;16.10;99.90
15217;DHT22;7711;46.634;14.318;2022-08-23T03:49:53;16.20;99.90
15217;DHT22;7711;46.634;14.318;2022-08-23T03:52:21;16.20;99.90
15217;DHT22;7711;46.634;14.318;2022-08-23T03:54:50;16.10;99.90
15217;DHT22;7711;46.634;14.318;2022-08-23T03:57:17;16.10;99.90
15217;DHT22;7711;46.634;14.318;2022-08-23T03:59:47;16.10;99.90
15217;DHT22;7711;46.634;14.318;2022-08-23T04:02:14;16.10;99.90
15217;DHT22;7711;46.634;14.318;2022-08-23T04:04:42;16.00;99.90
15217;DHT22;7711;46.634;14.318;2022-08-23T04:07:11;16.00;99.90
15217;DHT22;7711;46.634;14.318;2022-08-23T04:09:38;15.90;99.90
15217;DHT22;7711;46.634;14.318;2022-08-23T04:12:08;15.90;99.90
15217;DHT22;7711;46.634;14.318;2022-08-23T04:14:35;15.90;99.90
15217;DHT22;7711;46.634;14.318;2022-08-23T04:17:03;15.80;99.90
15217;DHT22;7711;46.634;14.318;2022-08-23T04:19:30;15.80;99.90
15217;DHT22;7711;46.634;14.318;2022-08-23T04:21:59;15.80;99.90
15217;DHT22;7711;46.634;14.318;2022-08-23T04:24:29;15.80;99.90
15217;DHT22;7711;46.634;14.318;2022-08-23T04:27:00;15.90;99.90
15217;DHT22;7711;46.634;14.318;2022-08-23T04:29:29;16.00;99.90
15217;DHT22;7711;46.634;14.318;2022-08-23T04:31:56;15.90;99.90
15217;DHT22;7711;46.634;14.318;2022-08-23T04:34:25;15.90;99.90
15217;DHT22;7711;46.634;14.318;2022-08-23T04:36:53;15.80;99.90
15217;DHT22;7711;46.634;14.318;2022-08-23T04:39:23;15.80;99.90
15217;DHT22;7711;46.634;14.318;2022-08-23T04:41:50;15.90;99.90
15217;DHT22;7711;46.634;14.318;2022-08-23T04:44:36;15.90;99.90
15217;DHT22;7711;46.634;14.318;2022-08-23T04:47:07;15.80;99.90
15217;DHT22;7711;46.634;14.318;2022-08-23T04:49:36;15.70;99.90
15217;DHT22;7711;46.634;14.318;2022-08-23T04:52:03;15.80;99.90
15217;DHT22;7711;46.634;14.318;2022-08-23T04:54:33;15.70;99.90
15217;DHT22;7711;46.634;14.318;2022-08-23T04:57:00;15.80;99.90
15217;DHT22;7711;46.634;14.318;2022-08-23T04:59:29;15.90;99.90
15217;DHT22;7711;46.634;14.318;2022-08-23T05:01:58;15.90;99.90
15217;DHT22;7711;46.634;14.318;2022-08-23T05:04:28;15.90;99.90
15217;DHT22;7711;46.634;14.318;2022-08-23T05:06:58;16.00;99.90
15217;DHT22;7711;46.634;14.318;2022-08-23T05:09:26;16.00;99.90
15217;DHT22;7711;46.634;14.318;2022-08-23T05:11:53;16.10;99.90
15217;DHT22;7711;46.634;14.318;2022-08-23T05:14:25;16.10;99.90
15217;DHT22;7711;46.634;14.318;2022-08-23T05:16:54;16.10;99.90
15217;DHT22;7711;46.634;14.318;2022-08-23T05:19:23;16.10;99.90
15217;DHT22;7711;46.634;14.318;2022-08-23T05:21:50;16.10;99.90
15217;DHT22;7711;46.634;14.318;2022-08-23T05:24:20;16.10;99.90
15217;DHT22;7711;46.634;14.318;2022-08-23T05:26:49;16.10;99.90
15217;DHT22;7711;46.634;14.318;2022-08-23T05:29:19;16.20;99.90
15217;DHT22;7711;46.634;14.318;2022-08-23T05:31:48;16.10;99.90
15217;DHT22;7711;46.634;14.318;2022-08-23T05:34:16;16.00;99.90
15217;DHT22;7711;46.634;14.318;2022-08-23T05:36:44;15.90;99.90
15217;DHT22;7711;46.634;14.318;2022-08-23T05:39:12;15.90;99.90
15217;DHT22;7711;46.634;14.318;2022-08-23T05:41:39;16.00;99.90
15217;DHT22;7711;46.634;14.318;2022-08-23T05:44:09;16.10;99.90
15217;DHT22;7711;46.634;14.318;2022-08-23T05:46:39;16.10;99.90
15217;DHT22;7711;46.634;14.318;2022-08-23T05:49:08;16.10;99.90
15217;DHT22;7711;46.634;14.318;2022-08-23T05:51:45;16.20;99.90
15217;DHT22;7711;46.634;14.318;2022-08-23T05:54:14;16.10;99.90
15217;DHT22;7711;46.634;14.318;2022-08-23T05:56:42;16.20;99.90
15217;DHT22;7711;46.634;14.318;2022-08-23T05:59:14;16.30;99.90
15217;DHT22;7711;46.634;14.318;2022-08-23T06:01:44;16.30;99.90
15217;DHT22;7711;46.634;14.318;2022-08-23T06:04:14;16.30;99.90
15217;DHT22;7711;46.634;14.318;2022-08-23T06:06:43;16.30;99.90
15217;DHT22;7711;46.634;14.318;2022-08-23T06:09:16;16.30;99.90
15217;DHT22;7711;46.634;14.318;2022-08-23T06:11:45;16.30;99.90
15217;DHT22;7711;46.634;14.318;2022-08-23T06:14:15;16.30;99.90
15217;DHT22;7711;46.634;14.318;2022-08-23T06:16:45;16.30;99.90
15217;DHT22;7711;46.634;14.318;2022-08-23T06:19:16;16.30;99.90
15217;DHT22;7711;46.634;14.318;2022-08-23T06:21:46;16.40;99.90
15217;DHT22;7711;46.634;14.318;2022-08-23T06:24:15;16.40;99.90
15217;DHT22;7711;46.634;14.318;2022-08-23T06:26:43;16.40;99.90
15217;DHT22;7711;46.634;14.318;2022-08-23T06:29:12;16.40;99.90
15217;DHT22;7711;46.634;14.318;2022-08-23T06:31:44;16.30;99.90
15217;DHT22;7711;46.634;14.318;2022-08-23T06:34:15;16.30;99.90
15217;DHT22;7711;46.634;14.318;2022-08-23T06:36:44;16.40;99.90
15217;DHT22;7711;46.634;14.318;2022-08-23T06:39:14;16.40;99.90
15217;DHT22;7711;46.634;14.318;2022-08-23T06:41:46;16.40;99.90
15217;DHT22;7711;46.634;14.318;2022-08-23T06:44:16;16.40;99.90
15217;DHT22;7711;46.634;14.318;2022-08-23T06:46:48;16.60;99.90
15217;DHT22;7711;46.634;14.318;2022-08-23T06:49:17;16.70;99.90
15217;DHT22;7711;46.634;14.318;2022-08-23T06:51:47;16.70;99.90
15217;DHT22;7711;46.634;14.318;2022-08-23T06:54:18;16.80;99.90
15217;DHT22;7711;46.634;14.318;2022-08-23T06:56:46;16.80;99.90
15217;DHT22;7711;46.634;14.318;2022-08-23T06:59:14;16.90;99.90
15217;DHT22;7711;46.634;14.318;2022-08-23T07:01:45;16.80;99.90
15217;DHT22;7711;46.634;14.318;2022-08-23T07:04:16;16.90;99.90
15217;DHT22;7711;46.634;14.318;2022-08-23T07:06:44;17.00;99.90
15217;DHT22;7711;46.634;14.318;2022-08-23T07:09:11;17.00;99.90
15217;DHT22;7711;46.634;14.318;2022-08-23T07:11:40;17.00;99.90
15217;DHT22;7711;46.634;14.318;2022-08-23T07:14:09;17.10;99.90
15217;DHT22;7711;46.634;14.318;2022-08-23T07:16:40;17.00;99.90
15217;DHT22;7711;46.634;14.318;2022-08-23T07:19:11;17.00;99.90
15217;DHT22;7711;46.634;14.318;2022-08-23T07:21:38;17.00;99.90
15217;DHT22;7711;46.634;14.318;2022-08-23T07:24:06;17.10;99.90
15217;DHT22;7711;46.634;14.318;2022-08-23T07:26:34;17.10;99.90
15217;DHT22;7711;46.634;14.318;2022-08-23T07:29:04;17.20;99.90
15217;DHT22;7711;46.634;14.318;2022-08-23T07:31:36;17.20;99.90
15217;DHT22;7711;46.634;14.318;2022-08-23T07:34:06;17.20;99.90
15217;DHT22;7711;46.634;14.318;2022-08-23T07:36:38;17.20;99.90
15217;DHT22;7711;46.634;14.318;2022-08-23T07:39:06;17.20;99.90
15217;DHT22;7711;46.634;14.318;2022-08-23T07:41:35;17.10;99.90
15217;DHT22;7711;46.634;14.318;2022-08-23T07:44:08;17.00;99.90
15217;DHT22;7711;46.634;14.318;2022-08-23T07:46:37;17.10;99.90
15217;DHT22;7711;46.634;14.318;2022-08-23T07:49:07;17.10;99.90
15217;DHT22;7711;46.634;14.318;2022-08-23T07:51:35;17.10;99.90
15217;DHT22;7711;46.634;14.318;2022-08-23T07:54:04;17.10;99.90
15217;DHT22;7711;46.634;14.318;2022-08-23T07:56:33;17.20;99.90
15217;DHT22;7711;46.634;14.318;2022-08-23T07:59:01;17.10;99.90
15217;DHT22;7711;46.634;14.318;2022-08-23T08:01:30;17.10;99.90
15217;DHT22;7711;46.634;14.318;2022-08-23T08:03:59;17.20;99.90
15217;DHT22;7711;46.634;14.318;2022-08-23T08:06:30;17.20;99.90
15217;DHT22;7711;46.634;14.318;2022-08-23T08:08:58;17.40;99.90
15217;DHT22;7711;46.634;14.318;2022-08-23T08:11:29;17.50;99.90
15217;DHT22;7711;46.634;14.318;2022-08-23T08:13:57;17.80;99.90
15217;DHT22;7711;46.634;14.318;2022-08-23T08:16:28;17.90;99.90
15217;DHT22;7711;46.634;14.318;2022-08-23T08:18:58;17.90;99.90
15217;DHT22;7711;46.634;14.318;2022-08-23T08:21:27;18.10;99.90
15217;DHT22;7711;46.634;14.318;2022-08-23T08:23:57;18.20;99.90
15217;DHT22;7711;46.634;14.318;2022-08-23T08:26:24;18.30;99.90
15217;DHT22;7711;46.634;14.318;2022-08-23T08:28:52;18.20;99.90
15217;DHT22;7711;46.634;14.318;2022-08-23T08:31:23;18.30;99.90
15217;DHT22;7711;46.634;14.318;2022-08-23T08:33:50;18.30;99.90
15217;DHT22;7711;46.634;14.318;2022-08-23T08:36:34;18.40;99.90
15217;DHT22;7711;46.634;14.318;2022-08-23T08:39:02;18.50;99.90
15217;DHT22;7711;46.634;14.318;2022-08-23T08:41:43;18.70;99.90
15217;DHT22;7711;46.634;14.318;2022-08-23T08:44:23;18.90;99.90
15217;DHT22;7711;46.634;14.318;2022-08-23T08:46:53;19.00;99.90
15217;DHT22;7711;46.634;14.318;2022-08-23T08:49:31;19.20;99.90
15217;DHT22;7711;46.634;14.318;2022-08-23T08:52:10;19.30;99.90
15217;DHT22;7711;46.634;14.318;2022-08-23T08:54:40;19.30;99.90
15217;DHT22;7711;46.634;14.318;2022-08-23T08:57:14;19.40;99.90
15217;DHT22;7711;46.634;14.318;2022-08-23T08:59:51;19.30;99.90
15217;DHT22;7711;46.634;14.318;2022-08-23T09:02:21;19.10;99.90
15217;DHT22;7711;46.634;14.318;2022-08-23T09:04:49;19.30;99.90
15217;DHT22;7711;46.634;14.318;2022-08-23T09:07:24;18.90;99.90
15217;DHT22;7711;46.634;14.318;2022-08-23T09:10:14;19.00;99.90
15217;DHT22;7711;46.634;14.318;2022-08-23T09:12:53;19.00;99.90
15217;DHT22;7711;46.634;14.318;2022-08-23T09:15:29;18.90;99.90
15217;DHT22;7711;46.634;14.318;2022-08-23T09:18:05;18.90;99.90
15217;DHT22;7711;46.634;14.318;2022-08-23T09:20:37;18.80;99.90
15217;DHT22;7711;46.634;14.318;2022-08-23T09:23:10;19.30;99.90
15217;DHT22;7711;46.634;14.318;2022-08-23T09:25:40;19.60;99.90
15217;DHT22;7711;46.634;14.318;2022-08-23T09:28:17;20.10;99.90
15217;DHT22;7711;46.634;14.318;2022-08-23T09:30:53;20.70;99.90
15217;DHT22;7711;46.634;14.318;2022-08-23T09:33:26;20.60;99.90
15217;DHT22;7711;46.634;14.318;2022-08-23T09:36:19;20.00;99.90
15217;DHT22;7711;46.634;14.318;2022-08-23T09:38:54;20.20;99.90
15217;DHT22;7711;46.634;14.318;2022-08-23T09:41:26;20.30;99.90
15217;DHT22;7711;46.634;14.318;2022-08-23T09:43:58;20.60;99.90
15217;DHT22;7711;46.634;14.318;2022-08-23T09:46:35;20.90;99.90
15217;DHT22;7711;46.634;14.318;2022-08-23T09:49:24;21.30;99.90
15217;DHT22;7711;46.634;14.318;2022-08-23T09:51:55;21.20;99.90
15217;DHT22;7711;46.634;14.318;2022-08-23T09:54:29;20.60;99.90
15217;DHT22;7711;46.634;14.318;2022-08-23T09:57:02;20.60;99.90
15217;DHT22;7711;46.634;14.318;2022-08-23T09:59:37;20.40;99.90
15217;DHT22;7711;46.634;14.318;2022-08-23T10:02:14;20.50;99.90
15217;DHT22;7711;46.634;14.318;2022-08-23T10:04:54;20.70;99.90
15217;DHT22;7711;46.634;14.318;2022-08-23T10:07:37;21.10;99.90
15217;DHT22;7711;46.634;14.318;2022-08-23T10:10:28;20.90;99.90
15217;DHT22;7711;46.634;14.318;2022-08-23T10:13:04;21.50;99.90
15217;DHT22;7711;46.634;14.318;2022-08-23T10:15:47;21.70;99.90
15217;DHT22;7711;46.634;14.318;2022-08-23T10:18:25;21.30;99.90
15217;DHT22;7711;46.634;14.318;2022-08-23T10:21:02;21.30;99.90
15217;DHT22;7711;46.634;14.318;2022-08-23T10:23:42;21.00;99.90
15217;DHT22;7711;46.634;14.318;2022-08-23T10:26:19;21.00;99.90
15217;DHT22;7711;46.634;14.318;2022-08-23T10:28:57;21.00;99.90
15217;DHT22;7711;46.634;14.318;2022-08-23T10:31:54;21.20;99.90
15217;DHT22;7711;46.634;14.318;2022-08-23T10:34:34;21.10;99.90
15217;DHT22;7711;46.634;14.318;2022-08-23T10:37:22;21.20;99.90
15217;DHT22;7711;46.634;14.318;2022-08-23T10:39:56;21.30;99.90
15217;DHT22;7711;46.634;14.318;2022-08-23T10:42:34;21.20;99.90
15217;DHT22;7711;46.634;14.318;2022-08-23T10:45:13;21.20;99.90
15217;DHT22;7711;46.634;14.318;2022-08-23T10:47:57;21.00;99.90
15217;DHT22;7711;46.634;14.318;2022-08-23T10:50:42;21.30;99.90
15217;DHT22;7711;46.634;14.318;2022-08-23T10:53:16;21.20;99.90
15217;DHT22;7711;46.634;14.318;2022-08-23T10:55:51;21.40;99.90
15217;DHT22;7711;46.634;14.318;2022-08-23T10:58:38;22.00;99.90
15217;DHT22;7711;46.634;14.318;2022-08-23T11:01:07;22.40;99.90
15217;DHT22;7711;46.634;14.318;2022-08-23T11:03:41;22.30;99.90
15217;DHT22;7711;46.634;14.318;2022-08-23T11:06:39;22.40;99.90
15217;DHT22;7711;46.634;14.318;2022-08-23T11:12:20;22.70;99.90
15217;DHT22;7711;46.634;14.318;2022-08-23T11:15:12;22.60;99.90
15217;DHT22;7711;46.634;14.318;2022-08-23T11:18:06;23.10;99.90
15217;DHT22;7711;46.634;14.318;2022-08-23T11:21:03;22.80;99.90
15217;DHT22;7711;46.634;14.318;2022-08-23T11:23:53;22.60;99.90
15217;DHT22;7711;46.634;14.318;2022-08-23T11:29:29;23.30;99.90
15217;DHT22;7711;46.634;14.318;2022-08-23T11:32:03;22.70;99.90
15217;DHT22;7711;46.634;14.318;2022-08-23T11:34:46;22.60;99.90
15217;DHT22;7711;46.634;14.318;2022-08-23T11:37:29;22.80;99.90
15217;DHT22;7711;46.634;14.318;2022-08-23T11:40:10;23.70;99.90
15217;DHT22;7711;46.634;14.318;2022-08-23T11:42:49;24.00;99.90
15217;DHT22;7711;46.634;14.318;2022-08-23T11:45:24;23.50;99.90
15217;DHT22;7711;46.634;14.318;2022-08-23T11:48:11;23.70;99.90
15217;DHT22;7711;46.634;14.318;2022-08-23T11:50:52;23.80;99.90
15217;DHT22;7711;46.634;14.318;2022-08-23T11:53:40;23.90;99.90
15217;DHT22;7711;46.634;14.318;2022-08-23T11:56:35;24.70;99.90
15217;DHT22;7711;46.634;14.318;2022-08-23T11:59:40;25.10;99.90
15217;DHT22;7711;46.634;14.318;2022-08-23T12:02:28;24.90;99.90
15217;DHT22;7711;46.634;14.318;2022-08-23T12:05:04;25.00;99.90
15217;DHT22;7711;46.634;14.318;2022-08-23T12:07:50;25.50;99.90
15217;DHT22;7711;46.634;14.318;2022-08-23T12:10:56;25.30;99.90
15217;DHT22;7711;46.634;14.318;2022-08-23T12:13:33;25.20;99.90
15217;DHT22;7711;46.634;14.318;2022-08-23T12:16:33;25.30;99.90
15217;DHT22;7711;46.634;14.318;2022-08-23T12:19:08;25.20;99.90
15217;DHT22;7711;46.634;14.318;2022-08-23T12:21:56;24.80;99.90
15217;DHT22;7711;46.634;14.318;2022-08-23T12:24:31;24.80;99.90
15217;DHT22;7711;46.634;14.318;2022-08-23T12:27:16;24.50;99.90
15217;DHT22;7711;46.634;14.318;2022-08-23T12:29:55;25.10;99.90
15217;DHT22;7711;46.634;14.318;2022-08-23T12:32:30;24.90;99.90
15217;DHT22;7711;46.634;14.318;2022-08-23T12:35:15;24.80;99.90
15217;DHT22;7711;46.634;14.318;2022-08-23T12:37:52;25.00;99.90
15217;DHT22;7711;46.634;14.318;2022-08-23T12:40:27;25.20;99.90
15217;DHT22;7711;46.634;14.318;2022-08-23T12:43:03;25.20;99.90
15217;DHT22;7711;46.634;14.318;2022-08-23T12:45:45;25.30;99.90
15217;DHT22;7711;46.634;14.318;2022-08-23T12:48:18;24.70;99.90
15217;DHT22;7711;46.634;14.318;2022-08-23T12:50:52;25.50;99.90
15217;DHT22;7711;46.634;14.318;2022-08-23T12:53:29;25.70;99.30
15217;DHT22;7711;46.634;14.318;2022-08-23T12:56:02;25.10;99.30
15217;DHT22;7711;46.634;14.318;2022-08-23T12:58:31;25.60;99.70
15217;DHT22;7711;46.634;14.318;2022-08-23T13:01:03;26.20;99.90
15217;DHT22;7711;46.634;14.318;2022-08-23T13:03:34;26.00;99.90
15217;DHT22;7711;46.634;14.318;2022-08-23T13:06:07;25.70;99.90
15217;DHT22;7711;46.634;14.318;2022-08-23T13:08:39;25.60;99.00
15217;DHT22;7711;46.634;14.318;2022-08-23T13:11:12;25.20;99.90
15217;DHT22;7711;46.634;14.318;2022-08-23T13:13:41;24.80;99.60
15217;DHT22;7711;46.634;14.318;2022-08-23T13:16:24;24.90;99.90
15217;DHT22;7711;46.634;14.318;2022-08-23T13:18:55;25.10;99.90
15217;DHT22;7711;46.634;14.318;2022-08-23T13:21:36;25.20;99.90
15217;DHT22;7711;46.634;14.318;2022-08-23T13:24:27;25.20;99.90
15217;DHT22;7711;46.634;14.318;2022-08-23T13:27:13;25.60;99.90
15217;DHT22;7711;46.634;14.318;2022-08-23T13:29:49;25.70;99.90
15217;DHT22;7711;46.634;14.318;2022-08-23T13:32:32;26.00;99.90
15217;DHT22;7711;46.634;14.318;2022-08-23T13:35:26;26.10;99.80
15217;DHT22;7711;46.634;14.318;2022-08-23T13:37:58;26.00;99.90
15217;DHT22;7711;46.634;14.318;2022-08-23T13:40:31;25.80;99.80
15217;DHT22;7711;46.634;14.318;2022-08-23T13:43:02;26.00;99.90
15217;DHT22;7711;46.634;14.318;2022-08-23T13:45:32;25.70;99.70
15217;DHT22;7711;46.634;14.318;2022-08-23T13:48:06;25.50;99.90
15217;DHT22;7711;46.634;14.318;2022-08-23T13:50:39;25.60;99.90
15217;DHT22;7711;46.634;14.318;2022-08-23T13:53:08;25.60;99.90
15217;DHT22;7711;46.634;14.318;2022-08-23T13:55:44;25.60;99.90
15217;DHT22;7711;46.634;14.318;2022-08-23T13:58:23;25.50;99.90
15217;DHT22;7711;46.634;14.318;2022-08-23T14:00:53;25.40;99.90
15217;DHT22;7711;46.634;14.318;2022-08-23T14:03:22;24.70;99.40
15217;DHT22;7711;46.634;14.318;2022-08-23T14:05:52;24.70;99.90
15217;DHT22;7711;46.634;14.318;2022-08-23T14:08:20;25.20;99.90
15217;DHT22;7711;46.634;14.318;2022-08-23T14:10:49;25.20;99.90
15217;DHT22;7711;46.634;14.318;2022-08-23T14:13:23;25.40;99.90
15217;DHT22;7711;46.634;14.318;2022-08-23T14:15:53;25.00;99.30
15217;DHT22;7711;46.634;14.318;2022-08-23T14:18:25;25.10;99.90
15217;DHT22;7711;46.634;14.318;2022-08-23T14:20:54;25.10;99.90
15217;DHT22;7711;46.634;14.318;2022-08-23T14:23:22;24.90;99.90
15217;DHT22;7711;46.634;14.318;2022-08-23T14:25:56;24.60;99.90
15217;DHT22;7711;46.634;14.318;2022-08-23T14:28:26;24.60;99.90
15217;DHT22;7711;46.634;14.318;2022-08-23T14:30:57;24.60;99.90
15217;DHT22;7711;46.634;14.318;2022-08-23T14:33:25;24.50;99.90
15217;DHT22;7711;46.634;14.318;2022-08-23T14:35:52;24.20;98.80
15217;DHT22;7711;46.634;14.318;2022-08-23T14:38:22;24.30;98.60
15217;DHT22;7711;46.634;14.318;2022-08-23T14:40:54;24.10;99.80
15217;DHT22;7711;46.634;14.318;2022-08-23T14:43:29;24.40;99.70
15217;DHT22;7711;46.634;14.318;2022-08-23T14:46:00;24.40;99.90
15217;DHT22;7711;46.634;14.318;2022-08-23T14:48:30;24.60;99.90
15217;DHT22;7711;46.634;14.318;2022-08-23T14:51:01;24.60;99.00
15217;DHT22;7711;46.634;14.318;2022-08-23T14:53:33;24.60;99.10
15217;DHT22;7711;46.634;14.318;2022-08-23T14:56:02;24.40;98.90
15217;DHT22;7711;46.634;14.318;2022-08-23T14:58:30;24.40;99.60
15217;DHT22;7711;46.634;14.318;2022-08-23T15:00:57;24.40;99.90
15217;DHT22;7711;46.634;14.318;2022-08-23T15:03:27;24.40;99.90
15217;DHT22;7711;46.634;14.318;2022-08-23T15:05:56;24.40;99.90
15217;DHT22;7711;46.634;14.318;2022-08-23T15:08:26;24.40;99.90
15217;DHT22;7711;46.634;14.318;2022-08-23T15:10:53;24.40;99.90
15217;DHT22;7711;46.634;14.318;2022-08-23T15:13:23;24.50;99.90
15217;DHT22;7711;46.634;14.318;2022-08-23T15:15:55;24.40;99.90
15217;DHT22;7711;46.634;14.318;2022-08-23T15:18:24;24.30;99.90
15217;DHT22;7711;46.634;14.318;2022-08-23T15:20:54;24.30;99.90
15217;DHT22;7711;46.634;14.318;2022-08-23T15:23:25;24.10;99.90
15217;DHT22;7711;46.634;14.318;2022-08-23T15:25:53;24.10;99.90
15217;DHT22;7711;46.634;14.318;2022-08-23T15:28:23;24.00;99.90
15217;DHT22;7711;46.634;14.318;2022-08-23T15:30:51;24.10;99.90
15217;DHT22;7711;46.634;14.318;2022-08-23T15:33:23;23.90;99.90
15217;DHT22;7711;46.634;14.318;2022-08-23T15:35:53;23.80;99.90
15217;DHT22;7711;46.634;14.318;2022-08-23T15:38:24;24.00;99.90
15217;DHT22;7711;46.634;14.318;2022-08-23T15:40:53;24.00;99.90
15217;DHT22;7711;46.634;14.318;2022-08-23T15:43:22;23.90;99.90
15217;DHT22;7711;46.634;14.318;2022-08-23T15:45:52;23.90;99.90
15217;DHT22;7711;46.634;14.318;2022-08-23T15:48:22;23.80;99.90
15217;DHT22;7711;46.634;14.318;2022-08-23T15:50:53;23.50;99.90
15217;DHT22;7711;46.634;14.318;2022-08-23T15:53:21;23.40;99.90
15217;DHT22;7711;46.634;14.318;2022-08-23T15:55:49;23.40;99.90
15217;DHT22;7711;46.634;14.318;2022-08-23T15:58:19;23.40;99.90
15217;DHT22;7711;46.634;14.318;2022-08-23T16:00:48;23.40;99.90
15217;DHT22;7711;46.634;14.318;2022-08-23T16:03:22;23.30;99.90
15217;DHT22;7711;46.634;14.318;2022-08-23T16:05:51;23.30;99.90
15217;DHT22;7711;46.634;14.318;2022-08-23T16:08:23;23.20;99.90
15217;DHT22;7711;46.634;14.318;2022-08-23T16:10:52;23.20;99.90
15217;DHT22;7711;46.634;14.318;2022-08-23T16:13:24;23.10;99.90